Time;durP1;ratioP1;P1;durP2;ratioP2;P2;SDS_P1;SDS_P2;PMS_P1;PMS_P2;Temp;Humidity;BMP_temperature;BMP_pressure;BME280_temperature;BME280_humidity;BME280_pressure;Samples;Min_cycle;Max_cycle;Signal;HPM_P1;HPM_P2
2023/10/22 02:29:24;;;;;;;1999.90;999.90;;;;;;;;;;5439524;23;20281;-66
2023/10/22 02:32:09;;;;;;;1999.90;999.90;;;;;;;;;;4968028;28;20754;-66
2023/10/22 02:34:54;;;;;;;1999.90;999.90;;;;;;;;;;4957542;28;20758;-67
2023/10/22 02:37:39;;;;;;;1999.90;999.90;;;;;;;;;;4961872;28;20596;-65
2023/10/22 02:40:24;;;;;;;1999.90;999.90;;;;;;;;;;4939189;29;20215;-66
2023/10/22 02:43:09;;;;;;;1999.90;999.90;;;;;;;;;;4938560;29;20230;-66
2023/10/22 02:45:56;;;;;;;1999.90;999.90;;;;;;;;;;4944205;29;20269;-66
2023/10/22 02:48:41;;;;;;;1999.90;999.90;;;;;;;;;;4940693;29;20308;-66
2023/10/22 02:51:26;;;;;;;1999.90;999.90;;;;;;;;;;4945886;29;20217;-67
2023/10/22 02:54:11;;;;;;;1999.90;999.90;;;;;;;;;;4940757;29;20348;-66
2023/10/22 02:56:56;;;;;;;1999.90;999.90;;;;;;;;;;4937913;29;20282;-67
2023/10/22 02:59:41;;;;;;;1999.90;999.90;;;;;;;;;;4937995;29;20234;-66
2023/10/22 03:02:27;;;;;;;1999.90;999.90;;;;;;;;;;4938277;29;20265;-66
2023/10/22 03:05:12;;;;;;;1999.90;999.90;;;;;;;;;;4937772;29;20245;-66
2023/10/22 03:07:57;;;;;;;1999.90;999.90;;;;;;;;;;4937581;29;20335;-66
2023/10/22 03:10:42;;;;;;;1999.90;999.90;;;;;;;;;;4937861;29;20209;-66
2023/10/22 03:13:27;;;;;;;1999.90;999.90;;;;;;;;;;4937448;29;20305;-65
2023/10/22 03:16:14;;;;;;;1999.90;999.90;;;;;;;;;;4936511;29;20926;-65
2023/10/22 03:19:01;;;;;;;1999.90;999.90;;;;;;;;;;4937487;29;20234;-67
2023/10/22 03:21:46;;;;;;;1999.90;999.90;;;;;;;;;;4937714;29;20288;-67
2023/10/22 03:24:31;;;;;;;1999.90;999.90;;;;;;;;;;4937552;29;20578;-67
2023/10/22 03:27:17;;;;;;;1999.90;999.90;;;;;;;;;;4935131;29;20234;-67
2023/10/22 03:30:03;;;;;;;1999.90;999.90;;;;;;;;;;4936876;29;20340;-68
2023/10/22 03:32:48;;;;;;;1999.90;999.90;;;;;;;;;;4942077;29;20341;-68
2023/10/22 03:35:35;;;;;;;1999.90;999.90;;;;;;;;;;4939861;29;20715;-67
2023/10/22 03:38:20;;;;;;;1999.90;999.90;;;;;;;;;;4938616;29;20491;-67
2023/10/22 03:41:05;;;;;;;1999.90;999.90;;;;;;;;;;4941283;29;20341;-67
2023/10/22 03:43:50;;;;;;;1999.90;999.90;;;;;;;;;;4935920;29;20691;-67
2023/10/22 03:46:35;;;;;;;1999.90;999.90;;;;;;;;;;4956221;29;20693;-67
2023/10/22 03:49:20;;;;;;;1999.90;999.90;;;;;;;;;;4946963;29;20614;-67
2023/10/22 03:52:06;;;;;;;1999.90;999.90;;;;;;;;;;4939374;29;20519;-67
2023/10/22 03:54:51;;;;;;;1999.90;999.90;;;;;;;;;;4943882;29;20290;-66
2023/10/22 03:57:36;;;;;;;1999.90;999.90;;;;;;;;;;4936703;29;20224;-67
2023/10/22 04:00:21;;;;;;;1999.90;999.90;;;;;;;;;;4936550;29;20224;-67
2023/10/22 04:03:06;;;;;;;1999.90;999.90;;;;;;;;;;4936510;29;20215;-68
2023/10/22 04:05:56;;;;;;;1999.90;999.90;;;;;;;;;;4941704;29;20196;-67
2023/10/22 04:08:43;;;;;;;1999.90;999.90;;;;;;;;;;4932825;29;20233;-67
2023/10/22 04:11:27;;;;;;;1999.90;999.90;;;;;;;;;;4946062;29;20214;-67
2023/10/22 04:14:12;;;;;;;1999.90;999.90;;;;;;;;;;4936504;29;20211;-67
2023/10/22 04:16:57;;;;;;;1999.90;999.90;;;;;;;;;;4930843;29;20337;-67
2023/10/22 04:19:42;;;;;;;1999.90;999.90;;;;;;;;;;4934614;29;20234;-66
2023/10/22 04:22:27;;;;;;;1999.90;999.90;;;;;;;;;;4944227;29;20709;-68
2023/10/22 04:25:14;;;;;;;1999.90;999.90;;;;;;;;;;4943851;29;20352;-66
2023/10/22 04:27:59;;;;;;;1999.90;999.90;;;;;;;;;;4936024;29;20255;-67
2023/10/22 04:30:44;;;;;;;1999.90;999.90;;;;;;;;;;4936322;29;20262;-67
2023/10/22 04:33:29;;;;;;;1999.90;999.90;;;;;;;;;;4943862;29;20298;-66
2023/10/22 04:36:19;;;;;;;1999.90;999.90;;;;;;;;;;4935757;29;20221;-67
2023/10/22 04:39:04;;;;;;;1999.90;999.90;;;;;;;;;;4935946;29;20240;-67
2023/10/22 04:41:50;;;;;;;1999.90;999.90;;;;;;;;;;4936103;29;20365;-66
2023/10/22 04:44:35;;;;;;;1999.90;999.90;;;;;;;;;;4936123;29;20216;-66
2023/10/22 04:47:20;;;;;;;1999.90;999.90;;;;;;;;;;4943341;29;20218;-66
2023/10/22 04:50:05;;;;;;;1999.90;999.90;;;;;;;;;;4954095;28;20226;-67
2023/10/22 04:52:50;;;;;;;1999.90;999.90;;;;;;;;;;4934862;29;20219;-66
2023/10/22 04:55:35;;;;;;;1999.90;999.90;;;;;;;;;;4943438;29;20385;-66
2023/10/22 04:58:21;;;;;;;1999.90;999.90;;;;;;;;;;4935320;29;20241;-68
2023/10/22 05:01:07;;;;;;;1999.90;999.90;;;;;;;;;;4935748;29;20320;-67
2023/10/22 05:03:52;;;;;;;1999.90;999.90;;;;;;;;;;4935784;29;20207;-67
2023/10/22 05:06:37;;;;;;;1999.90;999.90;;;;;;;;;;4937934;29;20217;-66
2023/10/22 05:09:22;;;;;;;1999.90;999.90;;;;;;;;;;4938189;29;20302;-66
2023/10/22 05:12:07;;;;;;;1999.90;999.90;;;;;;;;;;4943262;29;20222;-66
2023/10/22 05:14:54;;;;;;;1999.90;999.90;;;;;;;;;;4935386;29;20216;-67
2023/10/22 05:17:39;;;;;;;1999.90;999.90;;;;;;;;;;4943083;29;20221;-66
2023/10/22 05:20:24;;;;;;;1999.90;999.90;;;;;;;;;;4943303;29;20215;-67
2023/10/22 05:23:09;;;;;;;1999.90;999.90;;;;;;;;;;4943216;29;20214;-67
2023/10/22 05:26:02;;;;;;;1999.90;999.90;;;;;;;;;;4943300;29;20213;-70
2023/10/22 05:28:47;;;;;;;1999.90;999.90;;;;;;;;;;4934981;29;20256;-69
2023/10/22 05:31:33;;;;;;;1999.90;999.90;;;;;;;;;;4935074;29;20218;-70
2023/10/22 05:34:18;;;;;;;1999.90;999.90;;;;;;;;;;4934791;29;20391;-68
2023/10/22 05:37:03;;;;;;;1999.90;999.90;;;;;;;;;;4935218;29;20223;-70
2023/10/22 05:39:48;;;;;;;1999.90;999.90;;;;;;;;;;4934730;29;20300;-68
2023/10/22 05:42:34;;;;;;;1999.90;999.90;;;;;;;;;;4936301;29;20207;-70
2023/10/22 05:45:19;;;;;;;1999.90;999.90;;;;;;;;;;4938492;29;20855;-70
2023/10/22 05:48:06;;;;;;;1999.90;999.90;;;;;;;;;;4932083;29;20215;-71
2023/10/22 05:50:50;;;;;;;1999.90;999.90;;;;;;;;;;4930161;29;20212;-70
2023/10/22 05:53:36;;;;;;;1999.90;999.90;;;;;;;;;;4936122;29;20212;-69
2023/10/22 05:56:23;;;;;;;1999.90;999.90;;;;;;;;;;4938356;29;20279;-68
2023/10/22 05:59:09;;;;;;;1999.90;999.90;;;;;;;;;;4934391;29;20610;-69
2023/10/22 06:01:53;;;;;;;1999.90;999.90;;;;;;;;;;4927696;29;20216;-70
2023/10/22 06:04:40;;;;;;;1999.90;999.90;;;;;;;;;;4934396;29;20214;-71
2023/10/22 06:07:25;;;;;;;1999.90;999.90;;;;;;;;;;4934676;29;20233;-71
2023/10/22 06:10:10;;;;;;;1999.90;999.90;;;;;;;;;;4929217;29;20245;-70
2023/10/22 06:12:55;;;;;;;1999.90;999.90;;;;;;;;;;4934482;29;20257;-70
2023/10/22 06:15:40;;;;;;;1999.90;999.90;;;;;;;;;;4933949;29;20418;-71
2023/10/22 06:18:25;;;;;;;1999.90;999.90;;;;;;;;;;4934252;29;20234;-71
2023/10/22 06:21:12;;;;;;;1999.90;999.90;;;;;;;;;;4934581;29;20218;-70
2023/10/22 06:23:56;;;;;;;1999.90;999.90;;;;;;;;;;4934486;29;20215;-70
2023/10/22 06:26:41;;;;;;;1999.90;999.90;;;;;;;;;;4934466;29;20257;-68
2023/10/22 06:29:26;;;;;;;1999.90;999.90;;;;;;;;;;4934185;29;20244;-70
2023/10/22 06:32:11;;;;;;;1999.90;999.90;;;;;;;;;;4929491;29;20710;-70
2023/10/22 06:34:56;;;;;;;1999.90;999.90;;;;;;;;;;4934945;29;20261;-70
2023/10/22 06:37:42;;;;;;;1999.90;999.90;;;;;;;;;;4934144;29;20680;-68
2023/10/22 06:40:27;;;;;;;1999.90;999.90;;;;;;;;;;4942433;29;20221;-70
2023/10/22 06:43:12;;;;;;;1999.90;999.90;;;;;;;;;;4934339;29;20318;-70
2023/10/22 06:45:59;;;;;;;1999.90;999.90;;;;;;;;;;4934315;29;20205;-70
2023/10/22 06:48:44;;;;;;;1999.90;999.90;;;;;;;;;;4933996;29;20301;-70
2023/10/22 06:51:29;;;;;;;1999.90;999.90;;;;;;;;;;4934292;29;20692;-70
2023/10/22 06:54:15;;;;;;;1999.90;999.90;;;;;;;;;;4933968;29;20262;-69
2023/10/22 06:57:00;;;;;;;1999.90;999.90;;;;;;;;;;4934318;29;20610;-70
2023/10/22 06:59:47;;;;;;;1999.90;999.90;;;;;;;;;;4933894;29;20232;-69
2023/10/22 07:02:34;;;;;;;1999.90;999.90;;;;;;;;;;4932783;29;20215;-70
2023/10/22 07:05:19;;;;;;;1999.90;999.90;;;;;;;;;;4931918;29;20220;-70
2023/10/22 07:08:04;;;;;;;1999.90;999.90;;;;;;;;;;4933586;28;20221;-70
2023/10/22 07:10:50;;;;;;;1999.90;999.90;;;;;;;;;;4933504;29;20441;-70
2023/10/22 07:13:35;;;;;;;1999.90;999.90;;;;;;;;;;4934240;29;20606;-71
2023/10/22 07:16:20;;;;;;;1999.90;999.90;;;;;;;;;;4941485;29;20235;-70
2023/10/22 07:19:07;;;;;;;1999.90;999.90;;;;;;;;;;4941272;29;20951;-69
2023/10/22 07:21:52;;;;;;;1999.90;999.90;;;;;;;;;;4939260;29;20222;-70
2023/10/22 07:24:37;;;;;;;1999.90;999.90;;;;;;;;;;4936527;29;20212;-69
2023/10/22 07:27:23;;;;;;;1999.90;999.90;;;;;;;;;;4949713;29;20279;-70
2023/10/22 07:30:09;;;;;;;1999.90;999.90;;;;;;;;;;4934751;29;20239;-71
2023/10/22 07:32:54;;;;;;;1999.90;999.90;;;;;;;;;;4937935;29;20441;-68
2023/10/22 07:35:39;;;;;;;1999.90;999.90;;;;;;;;;;4939490;29;20302;-70
2023/10/22 07:38:24;;;;;;;1999.90;999.90;;;;;;;;;;4935207;29;20736;-71
2023/10/22 07:41:13;;;;;;;1999.90;999.90;;;;;;;;;;4946345;29;20800;-71
2023/10/22 07:44:00;;;;;;;1999.90;999.90;;;;;;;;;;4941073;29;20212;-70
2023/10/22 07:46:45;;;;;;;1999.90;999.90;;;;;;;;;;4940801;29;20238;-71
2023/10/22 07:49:30;;;;;;;1999.90;999.90;;;;;;;;;;4936140;29;20235;-71
2023/10/22 07:52:14;;;;;;;1999.90;999.90;;;;;;;;;;4938498;29;20222;-72
2023/10/22 07:54:59;;;;;;;1999.90;999.90;;;;;;;;;;4945496;29;20430;-69
2023/10/22 07:57:44;;;;;;;1999.90;999.90;;;;;;;;;;4952857;29;20206;-71
2023/10/22 08:00:31;;;;;;;1999.90;999.90;;;;;;;;;;4935181;29;20291;-72
2023/10/22 08:03:16;;;;;;;1999.90;999.90;;;;;;;;;;4941457;29;20208;-70
2023/10/22 08:06:04;;;;;;;1999.90;999.90;;;;;;;;;;4933697;29;20398;-70
2023/10/22 08:08:48;;;;;;;1999.90;999.90;;;;;;;;;;4939216;28;20235;-71
2023/10/22 08:11:33;;;;;;;1999.90;999.90;;;;;;;;;;4941835;29;20211;-69
2023/10/22 08:14:18;;;;;;;1999.90;999.90;;;;;;;;;;4939627;29;20228;-71
2023/10/22 08:17:04;;;;;;;1999.90;999.90;;;;;;;;;;4933914;29;20278;-73
2023/10/22 08:19:50;;;;;;;1999.90;999.90;;;;;;;;;;4941566;29;20234;-72
2023/10/22 08:22:36;;;;;;;1999.90;999.90;;;;;;;;;;4944993;29;20268;-71
2023/10/22 08:25:21;;;;;;;1999.90;999.90;;;;;;;;;;4945550;28;20209;-72
2023/10/22 08:28:06;;;;;;;1999.90;999.90;;;;;;;;;;4942626;29;20215;-71
2023/10/22 08:30:51;;;;;;;1999.90;999.90;;;;;;;;;;4941057;29;20211;-72
2023/10/22 08:33:38;;;;;;;1999.90;999.90;;;;;;;;;;4940913;29;20592;-71
2023/10/22 08:36:23;;;;;;;1999.90;999.90;;;;;;;;;;4943573;29;20239;-69
2023/10/22 08:39:10;;;;;;;1999.90;999.90;;;;;;;;;;4935264;29;20319;-71
2023/10/22 08:42:00;;;;;;;1999.90;999.90;;;;;;;;;;4937353;29;20222;-70
2023/10/22 08:44:48;;;;;;;1999.90;999.90;;;;;;;;;;4935033;29;20302;-70
2023/10/22 08:47:34;;;;;;;1999.90;999.90;;;;;;;;;;4938814;29;20293;-70
2023/10/22 08:50:21;;;;;;;1999.90;999.90;;;;;;;;;;4939771;29;20214;-71
2023/10/22 08:53:06;;;;;;;1999.90;999.90;;;;;;;;;;4936896;29;20590;-70
2023/10/22 08:55:51;;;;;;;1999.90;999.90;;;;;;;;;;4944402;29;20226;-71
2023/10/22 08:58:36;;;;;;;1999.90;999.90;;;;;;;;;;4934476;29;20725;-70
2023/10/22 09:01:21;;;;;;;1999.90;999.90;;;;;;;;;;4940440;29;20216;-71
2023/10/22 09:04:06;;;;;;;1999.90;999.90;;;;;;;;;;4936199;29;20219;-70
2023/10/22 09:06:54;;;;;;;1999.90;999.90;;;;;;;;;;4934474;29;20296;-68
2023/10/22 09:09:39;;;;;;;1999.90;999.90;;;;;;;;;;4938662;29;20254;-71
2023/10/22 09:12:24;;;;;;;1999.90;999.90;;;;;;;;;;4937764;29;20211;-70
2023/10/22 09:15:10;;;;;;;1999.90;999.90;;;;;;;;;;4931375;29;20235;-70
2023/10/22 09:18:02;;;;;;;1999.90;999.90;;;;;;;;;;4935832;29;20582;-71
2023/10/22 09:20:48;;;;;;;1999.90;999.90;;;;;;;;;;4941408;29;20223;-71
2023/10/22 09:23:35;;;;;;;1999.90;999.90;;;;;;;;;;4938349;29;20829;-69
2023/10/22 09:26:19;;;;;;;1999.90;999.90;;;;;;;;;;4941009;29;20806;-71
2023/10/22 09:29:05;;;;;;;1999.90;999.90;;;;;;;;;;4939079;29;20375;-71
2023/10/22 09:31:51;;;;;;;1999.90;999.90;;;;;;;;;;4936137;29;20586;-69
2023/10/22 09:34:36;;;;;;;1999.90;999.90;;;;;;;;;;4933582;29;20794;-70
2023/10/22 09:37:20;;;;;;;1999.90;999.90;;;;;;;;;;4941204;28;20211;-70
2023/10/22 09:40:18;;;;;;;1999.90;999.90;;;;;;;;;;4939808;29;20252;-71
2023/10/22 09:43:06;;;;;;;1999.90;999.90;;;;;;;;;;4940756;29;20627;-70
2023/10/22 09:45:51;;;;;;;1999.90;999.90;;;;;;;;;;4938142;29;20470;-70
2023/10/22 09:48:36;;;;;;;1999.90;999.90;;;;;;;;;;4931989;29;20361;-69
2023/10/22 09:51:21;;;;;;;1999.90;999.90;;;;;;;;;;4934993;29;20271;-70
2023/10/22 09:54:08;;;;;;;1999.90;999.90;;;;;;;;;;4933406;29;20508;-70
2023/10/22 09:56:58;;;;;;;1999.90;999.90;;;;;;;;;;4936913;29;20340;-71
2023/10/22 09:59:44;;;;;;;1999.90;999.90;;;;;;;;;;4941750;29;20228;-70
2023/10/22 10:02:29;;;;;;;1999.90;999.90;;;;;;;;;;4936999;29;20216;-71
2023/10/22 10:05:15;;;;;;;1999.90;999.90;;;;;;;;;;4931069;29;20205;-71
2023/10/22 10:08:00;;;;;;;1999.90;999.90;;;;;;;;;;4940409;29;20503;-70
2023/10/22 10:10:46;;;;;;;1999.90;999.90;;;;;;;;;;4934214;29;20208;-72
2023/10/22 10:13:32;;;;;;;1999.90;999.90;;;;;;;;;;4932381;29;21368;-70
2023/10/22 10:16:17;;;;;;;1999.90;999.90;;;;;;;;;;4934692;29;20836;-70
2023/10/22 10:19:03;;;;;;;1999.90;999.90;;;;;;;;;;4934326;29;20387;-69
2023/10/22 10:21:48;;;;;;;1999.90;999.90;;;;;;;;;;4943054;29;20357;-70
2023/10/22 10:24:34;;;;;;;1999.90;999.90;;;;;;;;;;4936291;29;20209;-70
2023/10/22 10:27:26;;;;;;;1999.90;999.90;;;;;;;;;;4942068;29;20217;-70
2023/10/22 10:30:17;;;;;;;1999.90;999.90;;;;;;;;;;4933015;29;20330;-70
2023/10/22 10:33:02;;;;;;;1999.90;999.90;;;;;;;;;;4932129;29;20587;-72
2023/10/22 10:35:48;;;;;;;1999.90;999.90;;;;;;;;;;4940482;29;20233;-70
2023/10/22 10:38:33;;;;;;;1999.90;999.90;;;;;;;;;;4934997;29;20248;-71
2023/10/22 10:41:41;;;;;;;1999.90;999.90;;;;;;;;;;4929203;29;20860;-70
2023/10/22 10:44:29;;;;;;;1999.90;999.90;;;;;;;;;;4933594;29;20234;-71
2023/10/22 10:47:34;;;;;;;1999.90;999.90;;;;;;;;;;4936818;28;20216;-70
2023/10/22 10:50:19;;;;;;;1999.90;999.90;;;;;;;;;;4946704;29;20329;-70
2023/10/22 10:53:05;;;;;;;1999.90;999.90;;;;;;;;;;4946062;29;20737;-71
2023/10/22 10:55:50;;;;;;;1999.90;999.90;;;;;;;;;;4936080;29;20229;-70
2023/10/22 10:58:43;;;;;;;1999.90;999.90;;;;;;;;;;4934246;29;20365;-71
2023/10/22 11:01:28;;;;;;;1999.90;999.90;;;;;;;;;;4935979;29;20217;-69
2023/10/22 11:04:14;;;;;;;1999.90;999.90;;;;;;;;;;4937022;29;20213;-70
2023/10/22 11:06:59;;;;;;;1999.90;999.90;;;;;;;;;;4935195;29;20217;-71
2023/10/22 11:09:44;;;;;;;1999.90;999.90;;;;;;;;;;4937328;29;20233;-70
2023/10/22 11:12:29;;;;;;;1999.90;999.90;;;;;;;;;;4937509;29;20288;-69
2023/10/22 11:15:16;;;;;;;1999.90;999.90;;;;;;;;;;4937341;29;20300;-70
2023/10/22 11:18:01;;;;;;;1999.90;999.90;;;;;;;;;;4936998;29;20221;-71
2023/10/22 11:20:56;;;;;;;1999.90;999.90;;;;;;;;;;4936269;29;20425;-70
2023/10/22 11:23:41;;;;;;;1999.90;999.90;;;;;;;;;;4937269;29;20213;-71
2023/10/22 11:26:27;;;;;;;1999.90;999.90;;;;;;;;;;4937549;29;20217;-70
2023/10/22 11:29:12;;;;;;;1999.90;999.90;;;;;;;;;;4937048;29;20249;-71
2023/10/22 11:31:57;;;;;;;1999.90;999.90;;;;;;;;;;4936502;29;20225;-70
2023/10/22 11:34:49;;;;;;;1999.90;999.90;;;;;;;;;;4935510;29;20229;-72
2023/10/22 11:37:37;;;;;;;1999.90;999.90;;;;;;;;;;4937391;29;20326;-70
2023/10/22 11:40:26;;;;;;;1999.90;999.90;;;;;;;;;;4937107;29;20269;-70
2023/10/22 11:43:14;;;;;;;1999.90;999.90;;;;;;;;;;4936970;29;20216;-69
2023/10/22 11:46:00;;;;;;;1999.90;999.90;;;;;;;;;;4936865;29;20213;-68
2023/10/22 11:48:45;;;;;;;1999.90;999.90;;;;;;;;;;4935310;29;20280;-71
2023/10/22 11:51:41;;;;;;;1999.90;999.90;;;;;;;;;;4934673;29;20213;-68
2023/10/22 11:54:42;;;;;;;1999.90;999.90;;;;;;;;;;4930844;29;20713;-70
2023/10/22 11:57:28;;;;;;;1999.90;999.90;;;;;;;;;;4939230;29;20300;-70
2023/10/22 12:00:14;;;;;;;1999.90;999.90;;;;;;;;;;4954569;28;20240;-69
2023/10/22 12:02:59;;;;;;;1999.90;999.90;;;;;;;;;;4956199;29;20241;-69
2023/10/22 12:05:44;;;;;;;1999.90;999.90;;;;;;;;;;4952347;29;20221;-69
2023/10/22 12:08:28;;;;;;;1999.90;999.90;;;;;;;;;;4937535;29;20252;-70
2023/10/22 12:11:15;;;;;;;1999.90;999.90;;;;;;;;;;4944921;29;20229;-68
2023/10/22 12:14:00;;;;;;;1999.90;999.90;;;;;;;;;;4955349;29;20822;-71
2023/10/22 12:16:44;;;;;;;1999.90;999.90;;;;;;;;;;4940873;29;20680;-68
2023/10/22 12:19:29;;;;;;;1999.90;999.90;;;;;;;;;;4928275;29;20236;-69
2023/10/22 12:22:14;;;;;;;1999.90;999.90;;;;;;;;;;4944508;29;20229;-69
2023/10/22 12:25:01;;;;;;;1999.90;999.90;;;;;;;;;;4936626;29;20614;-69
2023/10/22 12:27:47;;;;;;;1999.90;999.90;;;;;;;;;;4934651;29;20209;-68
2023/10/22 12:30:32;;;;;;;1999.90;999.90;;;;;;;;;;4936930;29;20778;-69
2023/10/22 12:33:17;;;;;;;1999.90;999.90;;;;;;;;;;4929473;29;20213;-69
2023/10/22 12:36:02;;;;;;;1999.90;999.90;;;;;;;;;;4933127;29;25127;-70
2023/10/22 12:38:47;;;;;;;1999.90;999.90;;;;;;;;;;4935481;29;20237;-69
2023/10/22 12:41:32;;;;;;;1999.90;999.90;;;;;;;;;;4935080;29;20577;-70
2023/10/22 12:44:21;;;;;;;1999.90;999.90;;;;;;;;;;4937575;29;20587;-69
2023/10/22 12:47:12;;;;;;;1999.90;999.90;;;;;;;;;;4937070;29;20220;-68
2023/10/22 12:49:57;;;;;;;1999.90;999.90;;;;;;;;;;4943124;29;20232;-70
2023/10/22 12:52:42;;;;;;;1999.90;999.90;;;;;;;;;;4932107;29;20277;-69
2023/10/22 12:55:28;;;;;;;1999.90;999.90;;;;;;;;;;4935512;29;20229;-70
2023/10/22 12:58:13;;;;;;;1999.90;999.90;;;;;;;;;;4938758;29;20372;-69
2023/10/22 13:00:59;;;;;;;1999.90;999.90;;;;;;;;;;4942782;29;20272;-70
2023/10/22 13:03:45;;;;;;;1999.90;999.90;;;;;;;;;;4928417;29;20213;-69
2023/10/22 13:06:30;;;;;;;1999.90;999.90;;;;;;;;;;4936098;29;20206;-69
2023/10/22 13:09:16;;;;;;;1999.90;999.90;;;;;;;;;;4933075;29;20236;-69
2023/10/22 13:12:00;;;;;;;1999.90;999.90;;;;;;;;;;4934237;29;20694;-69
2023/10/22 13:14:45;;;;;;;1999.90;999.90;;;;;;;;;;4937312;29;20229;-68
2023/10/22 13:17:35;;;;;;;1999.90;999.90;;;;;;;;;;4935722;29;20209;-69
2023/10/22 13:20:20;;;;;;;1999.90;999.90;;;;;;;;;;4933393;29;20725;-70
2023/10/22 13:23:05;;;;;;;1999.90;999.90;;;;;;;;;;4940241;29;20291;-69
2023/10/22 13:25:50;;;;;;;1999.90;999.90;;;;;;;;;;4937970;29;20205;-70
2023/10/22 13:28:35;;;;;;;1999.90;999.90;;;;;;;;;;4932889;29;20712;-68
2023/10/22 13:31:20;;;;;;;1999.90;999.90;;;;;;;;;;4929053;29;20453;-70
2023/10/22 13:34:06;;;;;;;1999.90;999.90;;;;;;;;;;4932008;29;20204;-69
2023/10/22 13:36:51;;;;;;;1999.90;999.90;;;;;;;;;;4939537;29;20213;-68
2023/10/22 13:39:36;;;;;;;1999.90;999.90;;;;;;;;;;4931921;29;20792;-70
2023/10/22 13:42:21;;;;;;;1999.90;999.90;;;;;;;;;;4944280;29;20224;-70
2023/10/22 13:45:07;;;;;;;1999.90;999.90;;;;;;;;;;4934847;29;20205;-69
2023/10/22 13:47:52;;;;;;;1999.90;999.90;;;;;;;;;;4934637;29;20224;-69
2023/10/22 13:50:38;;;;;;;1999.90;999.90;;;;;;;;;;4925525;29;20280;-69
2023/10/22 13:53:24;;;;;;;1999.90;999.90;;;;;;;;;;4942232;29;20483;-70
2023/10/22 13:56:09;;;;;;;1999.90;999.90;;;;;;;;;;4942291;29;20225;-69
2023/10/22 13:58:54;;;;;;;1999.90;999.90;;;;;;;;;;4914651;29;20246;-69
2023/10/22 14:01:38;;;;;;;1999.90;999.90;;;;;;;;;;4915996;29;20617;-68
2023/10/22 14:04:23;;;;;;;1999.90;999.90;;;;;;;;;;4915964;29;20210;-70
2023/10/22 14:07:10;;;;;;;1999.90;999.90;;;;;;;;;;4915718;29;20217;-69
2023/10/22 14:09:54;;;;;;;1999.90;999.90;;;;;;;;;;4915681;29;20234;-69
2023/10/22 14:12:39;;;;;;;1999.90;999.90;;;;;;;;;;4915857;29;20230;-67
2023/10/22 14:15:24;;;;;;;1999.90;999.90;;;;;;;;;;4915671;29;20225;-69
2023/10/22 14:18:09;;;;;;;1999.90;999.90;;;;;;;;;;4915635;29;20373;-68
2023/10/22 14:20:54;;;;;;;1999.90;999.90;;;;;;;;;;4915777;29;20217;-69
2023/10/22 14:23:40;;;;;;;1999.90;999.90;;;;;;;;;;4914908;29;20209;-69
2023/10/22 14:26:25;;;;;;;1999.90;999.90;;;;;;;;;;4915629;29;20198;-69
2023/10/22 14:29:11;;;;;;;1999.90;999.90;;;;;;;;;;4915288;29;20237;-69
2023/10/22 14:31:56;;;;;;;1999.90;999.90;;;;;;;;;;4915673;29;20734;-69
2023/10/22 14:34:41;;;;;;;1999.90;999.90;;;;;;;;;;4915575;29;20343;-69
2023/10/22 14:37:26;;;;;;;1999.90;999.90;;;;;;;;;;4915687;29;20695;-69
2023/10/22 14:40:12;;;;;;;1999.90;999.90;;;;;;;;;;4915581;29;20243;-69
2023/10/22 14:42:57;;;;;;;1999.90;999.90;;;;;;;;;;4915513;29;20718;-69
2023/10/22 14:45:42;;;;;;;1999.90;999.90;;;;;;;;;;4915460;29;20262;-69
2023/10/22 14:48:27;;;;;;;1999.90;999.90;;;;;;;;;;4915253;29;20253;-70
2023/10/22 14:51:12;;;;;;;1999.90;999.90;;;;;;;;;;4915531;29;20217;-70
2023/10/22 14:53:57;;;;;;;1999.90;999.90;;;;;;;;;;4915432;29;20699;-70
2023/10/22 14:56:43;;;;;;;1999.90;999.90;;;;;;;;;;4915179;29;20238;-69
2023/10/22 14:59:28;;;;;;;1999.90;999.90;;;;;;;;;;4915143;29;20229;-69
2023/10/22 15:02:13;;;;;;;1999.90;999.90;;;;;;;;;;4915340;29;20257;-69
2023/10/22 15:04:58;;;;;;;1999.90;999.90;;;;;;;;;;4915390;29;20278;-69
2023/10/22 15:07:45;;;;;;;1999.90;999.90;;;;;;;;;;4915206;29;20214;-67
2023/10/22 15:10:30;;;;;;;1999.90;999.90;;;;;;;;;;4914807;29;20420;-68
2023/10/22 15:13:16;;;;;;;1999.90;999.90;;;;;;;;;;4915276;29;20206;-67
2023/10/22 15:16:01;;;;;;;1999.90;999.90;;;;;;;;;;4914986;29;20230;-68
2023/10/22 15:18:46;;;;;;;1999.90;999.90;;;;;;;;;;4915018;29;20242;-67
2023/10/22 15:21:31;;;;;;;1999.90;999.90;;;;;;;;;;4915306;29;20213;-68
2023/10/22 15:24:16;;;;;;;1999.90;999.90;;;;;;;;;;4915217;29;20301;-68
2023/10/22 15:27:01;;;;;;;1999.90;999.90;;;;;;;;;;4915502;29;20210;-67
2023/10/22 15:29:47;;;;;;;1999.90;999.90;;;;;;;;;;4914959;29;20238;-68
2023/10/22 15:32:32;;;;;;;1999.90;999.90;;;;;;;;;;4915426;29;20213;-68
2023/10/22 15:35:17;;;;;;;1999.90;999.90;;;;;;;;;;4917868;29;20241;-67
2023/10/22 15:38:02;;;;;;;1999.90;999.90;;;;;;;;;;4918055;29;20342;-68
2023/10/22 15:40:47;;;;;;;1999.90;999.90;;;;;;;;;;4918966;29;20285;-69
2023/10/22 15:43:32;;;;;;;1999.90;999.90;;;;;;;;;;4918495;29;20706;-69
2023/10/22 15:46:22;;;;;;;1999.90;999.90;;;;;;;;;;4918827;29;20277;-68
2023/10/22 15:49:07;;;;;;;1999.90;999.90;;;;;;;;;;4918508;29;20738;-69
2023/10/22 15:51:52;;;;;;;1999.90;999.90;;;;;;;;;;4918315;29;20214;-69
2023/10/22 15:54:37;;;;;;;1999.90;999.90;;;;;;;;;;4918188;29;20755;-69
2023/10/22 15:57:22;;;;;;;1999.90;999.90;;;;;;;;;;4918273;29;20233;-69
2023/10/22 16:00:07;;;;;;;1999.90;999.90;;;;;;;;;;4919765;29;20230;-69
2023/10/22 16:02:54;;;;;;;1999.90;999.90;;;;;;;;;;4919291;29;20508;-69
2023/10/22 16:05:40;;;;;;;1999.90;999.90;;;;;;;;;;4918276;29;20231;-68
2023/10/22 16:08:24;;;;;;;1999.90;999.90;;;;;;;;;;4917933;29;20600;-67
2023/10/22 16:11:09;;;;;;;1999.90;999.90;;;;;;;;;;4917663;29;20213;-68
2023/10/22 16:13:54;;;;;;;1999.90;999.90;;;;;;;;;;4917849;29;20307;-67
2023/10/22 16:16:39;;;;;;;1999.90;999.90;;;;;;;;;;4917685;29;20217;-67
2023/10/22 16:19:26;;;;;;;1999.90;999.90;;;;;;;;;;4917474;29;20229;-68
2023/10/22 16:22:11;;;;;;;1999.90;999.90;;;;;;;;;;4917529;29;20210;-68
2023/10/22 16:24:56;;;;;;;1999.90;999.90;;;;;;;;;;4918029;29;20262;-68
2023/10/22 16:27:40;;;;;;;1999.90;999.90;;;;;;;;;;4916246;29;20405;-67
2023/10/22 16:30:26;;;;;;;1999.90;999.90;;;;;;;;;;4917570;29;20230;-68
2023/10/22 16:33:12;;;;;;;1999.90;999.90;;;;;;;;;;4917538;29;20210;-68
2023/10/22 16:36:03;;;;;;;1999.90;999.90;;;;;;;;;;4917244;29;20222;-67
2023/10/22 16:38:48;;;;;;;1999.90;999.90;;;;;;;;;;4917190;29;20734;-67
2023/10/22 16:41:33;;;;;;;1999.90;999.90;;;;;;;;;;4917369;29;20324;-67
2023/10/22 16:44:18;;;;;;;1999.90;999.90;;;;;;;;;;4917299;29;20587;-66
2023/10/22 16:47:03;;;;;;;1999.90;999.90;;;;;;;;;;4916507;29;20702;-68
2023/10/22 16:49:48;;;;;;;1999.90;999.90;;;;;;;;;;4917059;29;20730;-68
2023/10/22 16:52:35;;;;;;;1999.90;999.90;;;;;;;;;;4917134;29;20202;-66
2023/10/22 16:55:20;;;;;;;1999.90;999.90;;;;;;;;;;4916998;29;20210;-68
2023/10/22 16:58:04;;;;;;;1999.90;999.90;;;;;;;;;;4916794;29;20221;-68
2023/10/22 17:00:49;;;;;;;1999.90;999.90;;;;;;;;;;4917031;29;20209;-68
2023/10/22 17:03:34;;;;;;;1999.90;999.90;;;;;;;;;;4916951;29;20258;-67
2023/10/22 17:06:20;;;;;;;1999.90;999.90;;;;;;;;;;4917207;29;20281;-68
2023/10/22 17:09:06;;;;;;;1999.90;999.90;;;;;;;;;;4916696;29;20308;-68
2023/10/22 17:11:51;;;;;;;1999.90;999.90;;;;;;;;;;4916836;29;20260;-68
2023/10/22 17:14:36;;;;;;;1999.90;999.90;;;;;;;;;;4916753;29;20588;-68
2023/10/22 17:17:21;;;;;;;1999.90;999.90;;;;;;;;;;4916499;29;20230;-67
2023/10/22 17:20:06;;;;;;;1999.90;999.90;;;;;;;;;;4916438;29;20237;-68
2023/10/22 17:22:51;;;;;;;1999.90;999.90;;;;;;;;;;4916579;29;20344;-67
2023/10/22 17:25:45;;;;;;;1999.90;999.90;;;;;;;;;;4916555;29;20208;-68
2023/10/22 17:28:30;;;;;;;1999.90;999.90;;;;;;;;;;4916286;29;20249;-67
2023/10/22 17:31:15;;;;;;;1999.90;999.90;;;;;;;;;;4916580;29;20268;-68
2023/10/22 17:34:00;;;;;;;1999.90;999.90;;;;;;;;;;4916302;29;20216;-67
2023/10/22 17:36:46;;;;;;;1999.90;999.90;;;;;;;;;;4916218;29;20320;-68
2023/10/22 17:39:31;;;;;;;1999.90;999.90;;;;;;;;;;4916187;29;20232;-67
2023/10/22 17:42:17;;;;;;;1999.90;999.90;;;;;;;;;;4916538;29;20220;-68
2023/10/22 17:45:02;;;;;;;1999.90;999.90;;;;;;;;;;4916065;29;20212;-67
2023/10/22 17:47:47;;;;;;;1999.90;999.90;;;;;;;;;;4916042;29;20573;-67
2023/10/22 17:50:32;;;;;;;1999.90;999.90;;;;;;;;;;4915965;29;20208;-68
2023/10/22 17:53:21;;;;;;;1999.90;999.90;;;;;;;;;;4916109;29;20300;-68